09PA weather

Eagle Field
Port Matilda, Pennsylvania, United States

Public forecast

Using degrees Fahrenheit for public forecast. Weather courtesy of forecast.io.

Closest aviation weather report (METAR) to Eagle Field

Closest report is University Park Airport, 6.5 nm (12.0 km) ENE. Retrieved 2019/11/21 21:53 UTC (49 minutes ago):

KUNV 212153Z 22003KT 10SM BKN120 07/00 A3003

Closest aviation forecast (TAF) to Eagle Field

Closest forecast is University Park Airport, 6.5 nm (12.0 km) ENE. Retrieved 2019/11/21 18:12 UTC (4 hours ago):

TAF KUNV 211810Z 2118/2218 21007KT P6SM BKN250 FM212000 21006KT P6SM OVC090 FM220300 22007KT P6SM OVC050 FM220800 25010KT P6SM VCSH OVC025